Aeroporto :
LOGIN :

Iscrizione | Disclaimer

   EN    FR    IT 

 










Sommario :    VFR   VFR Marginale   IFR   IFR Intensivo   IFR Molto Intensivo
Visibilità : 
Base nubi : 
>= 8 km
>= 3000ft
5 / 8 km
1000 / 3000 ft
1500m / 5 km
500 / 1000 ft
800 / 1500m
200 / 500 ft
< 800m
< 200 ft
Simboli :   Temporali  Nebbia  Neve Forte  Precipitazioni Forti  Vento > 20 kt
SIGMETs :   Varie  Temporali  Ghiacco  Turbolenza  Onda orograficha  Ceneri Vulcaniche







- Altitudine del aeroporto : 286 ft
- Codice IATA : TRF


ENTO - Sandefjord , Torp

ULTIMO METAR :
  • 201850Z 19009KT 9999 SCT012 16/14 Q1005 NOSIG

METARs OBSOLETI :
  • 201820Z 19008KT 9999 SCT010 16/14 Q1005 NOSIG
  • 201750Z 19008KT 170V220 9999 SCT010 BKN013 16/14 Q1005 BECMG SCT013 BKN030
  • 201720Z 19011KT 9999 SCT013 BKN015 16/14 Q1005 NOSIG
  • 201650Z 19010KT 9999 SCT013 17/13 Q1005 NOSIG
  • 201620Z 20009KT 170V240 9999 FEW012 SCT019 17/14 Q1005 NOSIG

TAF COR TAF ENTO
Valido dal 20 a 18 ore il 21 a 18 ore UTC


2018/2118 20010KT 9999 FEW007 SCT030
TEMPO 2018/2021 BKN012
BECMG 2020/2022 26008KT
BECMG 2109/2111 20015KT
TEMPO 2114/2117 20018G28KT 4000 SHRA SCT012 SCT030CB
PROB30 2114/2117 TSRA
Nessun NOTAM noto per questo aeroporto.



MetMap, La meteo Aeronautica in un colpo d'occhio ! - Copyright ORBIFLY Dicembre 2007 - Disclaimer

ORBIFLY MET'MAP TEAM :

Programmazione e sviluppo : Alexandra Zaïnal
Concezione e sviluppo : Baudouin d'Aumeries
Co-Programmazione e sviluppo : Marc-Olivier Méhu
Supporto tecnico e logistico : Manuel Goepfert
Aiuto per la traduzione : Arnaldo La Scala

Contatto : metmap@orbifly.com




FONTI E CREDITI :

   NOAA